Terminal Aerodrome Forecast
Issued by NWS Grand Junction, CO

Home | Current Version | Previous Version | Text Only | Print | Product List | Glossary On
Versions: 1 2 3 4 5 6 7 8 9 10 11 12 13 14 15 16 17 18 19 20 21 22 23 24 25 26
000
FTUS45 KGJT 221138
TAFGJT
TAF
KGJT 221138Z 2212/2312 11004KT P6SM SCT250
     FM221600 12005KT P6SM FEW100 BKN150
     FM222100 28005KT P6SM OVC100
     FM230100 05008KT P6SM VCSH SCT050 OVC070
     FM230800 33004KT P6SM VCSH BKN070 OVC090=

USA.gov is the U.S. government's official web portal to all federal, state and local government web resources and services.